VOZ512 YBCG-YSSY
Flight info
| Callsign | VOZ512 |
|---|---|
| Flight time | 1h 12m |
| Altitude | 32000 |
| Route | GOMOL Q16 APAGI H91 IGDAM/N0446F310 H652 BOREE |
| Aircraft | B739/M-SDE2E3FGHIRWXY/LB1 |
Departure
| Time | 2026-05-06 10:43 |
|---|---|
| Airport | Gold Coast Airport (YBCG) |
Arrival
| Time | 2026-05-06 11:55 |
|---|---|
| Airport | Sydney Kingsford Smith International Airport (YSSY) |
| Time | Latitude | Longitude | Altitude | Speed | Heading |
|---|---|---|---|---|---|
| 2026-05-06 10:17 | -28.16668 | 153.51193 | 23 ft | 0 kts | 63° |
| 2026-05-06 10:32 | -28.16670 | 153.51189 | 23 ft | 2 kts | 62° |
| 2026-05-06 10:32 | -28.16677 | 153.51173 | 25 ft | 2 kts | 62° |
| 2026-05-06 10:33 | -28.16685 | 153.51157 | 25 ft | 2 kts | 61° |
| 2026-05-06 10:33 | -28.16700 | 153.51129 | 27 ft | 5 kts | 55° |
| 2026-05-06 10:33 | -28.16720 | 153.51114 | 28 ft | 5 kts | 348° |
| 2026-05-06 10:33 | -28.16730 | 153.51117 | 26 ft | 0 kts | 327° |
| 2026-05-06 10:37 | -28.16729 | 153.51117 | 25 ft | 1 kts | 327° |
| 2026-05-06 10:37 | -28.16693 | 153.51092 | 26 ft | 12 kts | 329° |
| 2026-05-06 10:37 | -28.16597 | 153.51029 | 27 ft | 16 kts | 330° |
| 2026-05-06 10:37 | -28.16488 | 153.50948 | 26 ft | 20 kts | 303° |
| 2026-05-06 10:38 | -28.16476 | 153.50816 | 27 ft | 11 kts | 301° |
| 2026-05-06 10:38 | -28.16437 | 153.50782 | 28 ft | 6 kts | 334° |
| 2026-05-06 10:38 | -28.16369 | 153.50741 | 25 ft | 20 kts | 330° |
| 2026-05-06 10:38 | -28.16235 | 153.50657 | 27 ft | 22 kts | 330° |
| 2026-05-06 10:39 | -28.16105 | 153.50574 | 28 ft | 21 kts | 330° |
| 2026-05-06 10:39 | -28.15977 | 153.50492 | 26 ft | 21 kts | 330° |
| 2026-05-06 10:39 | -28.15854 | 153.50413 | 27 ft | 20 kts | 330° |
| 2026-05-06 10:39 | -28.15734 | 153.50336 | 28 ft | 19 kts | 330° |
| 2026-05-06 10:40 | -28.15623 | 153.50253 | 29 ft | 18 kts | 305° |
| 2026-05-06 10:40 | -28.15613 | 153.50231 | 29 ft | 0 kts | 289° |
| 2026-05-06 10:41 | -28.15610 | 153.50198 | 29 ft | 9 kts | 266° |
| 2026-05-06 10:41 | -28.15659 | 153.50111 | 28 ft | 17 kts | 206° |
| 2026-05-06 10:41 | -28.15716 | 153.50115 | 28 ft | 0 kts | 149° |
| 2026-05-06 10:42 | -28.15727 | 153.50122 | 28 ft | 6 kts | 150° |
| 2026-05-06 10:42 | -28.15834 | 153.50190 | 28 ft | 47 kts | 151° |
| 2026-05-06 10:42 | -28.16382 | 153.50527 | 28 ft | 129 kts | 152° |
| 2026-05-06 10:43 | -28.17347 | 153.51088 | 156 ft | 178 kts | 153° |
| 2026-05-06 10:43 | -28.18510 | 153.51756 | 677 ft | 202 kts | 153° |
| 2026-05-06 10:43 | -28.19832 | 153.52580 | 1165 ft | 232 kts | 152° |
| 2026-05-06 10:44 | -28.23186 | 153.54150 | 2150 ft | 288 kts | 160° |
| 2026-05-06 10:44 | -28.25182 | 153.54783 | 2624 ft | 306 kts | 175° |
| 2026-05-06 10:44 | -28.27184 | 153.54430 | 3081 ft | 281 kts | 205° |
| 2026-05-06 10:44 | -28.28704 | 153.53155 | 3554 ft | 267 kts | 231° |
| 2026-05-06 10:45 | -28.29618 | 153.51357 | 4094 ft | 262 kts | 250° |
| 2026-05-06 10:45 | -28.29978 | 153.49359 | 4605 ft | 264 kts | 271° |
| 2026-05-06 10:45 | -28.29851 | 153.47277 | 5156 ft | 267 kts | 267° |
| 2026-05-06 10:45 | -28.30209 | 153.45208 | 5683 ft | 269 kts | 251° |
| 2026-05-06 10:46 | -28.31003 | 153.43283 | 6209 ft | 271 kts | 238° |
| 2026-05-06 10:46 | -28.32079 | 153.41518 | 6748 ft | 272 kts | 234° |
| 2026-05-06 10:46 | -28.33202 | 153.39788 | 7280 ft | 273 kts | 233° |
| 2026-05-06 10:46 | -28.34338 | 153.38054 | 7797 ft | 275 kts | 233° |
| 2026-05-06 10:47 | -28.35481 | 153.36308 | 8333 ft | 277 kts | 234° |
| 2026-05-06 10:47 | -28.36629 | 153.34541 | 8849 ft | 279 kts | 234° |
| 2026-05-06 10:47 | -28.37784 | 153.32758 | 9380 ft | 281 kts | 234° |
| 2026-05-06 10:47 | -28.38929 | 153.30982 | 9900 ft | 283 kts | 234° |
| 2026-05-06 10:48 | -28.40098 | 153.29163 | 10430 ft | 286 kts | 234° |
| 2026-05-06 10:48 | -28.41273 | 153.27332 | 10950 ft | 288 kts | 234° |
| 2026-05-06 10:48 | -28.42457 | 153.25483 | 11570 ft | 287 kts | 234° |
| 2026-05-06 10:48 | -28.43631 | 153.23648 | 12277 ft | 287 kts | 234° |
| 2026-05-06 10:49 | -28.44811 | 153.21801 | 12981 ft | 288 kts | 234° |
| 2026-05-06 10:49 | -28.45975 | 153.19977 | 13662 ft | 288 kts | 234° |
| 2026-05-06 10:49 | -28.47149 | 153.18138 | 14354 ft | 287 kts | 234° |
| 2026-05-06 10:49 | -28.48319 | 153.16303 | 15050 ft | 285 kts | 234° |
| 2026-05-06 10:50 | -28.49483 | 153.14476 | 15735 ft | 283 kts | 234° |
| 2026-05-06 10:50 | -28.50630 | 153.12674 | 16421 ft | 280 kts | 234° |
| 2026-05-06 10:50 | -28.51765 | 153.10892 | 17104 ft | 276 kts | 234° |
| 2026-05-06 10:50 | -28.52866 | 153.09162 | 17775 ft | 270 kts | 234° |
| 2026-05-06 10:51 | -28.53956 | 153.07448 | 18437 ft | 265 kts | 234° |
| 2026-05-06 10:51 | -28.55045 | 153.05736 | 18914 ft | 268 kts | 234° |
| 2026-05-06 10:51 | -28.56171 | 153.03964 | 19033 ft | 285 kts | 234° |
| 2026-05-06 10:51 | -28.57368 | 153.02079 | 19196 ft | 302 kts | 234° |
| 2026-05-06 10:52 | -28.58634 | 153.00085 | 19320 ft | 319 kts | 234° |
| 2026-05-06 10:52 | -28.59960 | 152.97995 | 19558 ft | 331 kts | 234° |
| 2026-05-06 10:52 | -28.61304 | 152.95877 | 20014 ft | 336 kts | 234° |
| 2026-05-06 10:52 | -28.62679 | 152.93709 | 20585 ft | 338 kts | 234° |
| 2026-05-06 10:53 | -28.64059 | 152.91530 | 21113 ft | 340 kts | 234° |
| 2026-05-06 10:53 | -28.65451 | 152.89333 | 21630 ft | 343 kts | 234° |
| 2026-05-06 10:53 | -28.66852 | 152.87120 | 22123 ft | 346 kts | 234° |
| 2026-05-06 10:53 | -28.68265 | 152.84887 | 22600 ft | 349 kts | 234° |
| 2026-05-06 10:54 | -28.69669 | 152.82666 | 23092 ft | 350 kts | 234° |
| 2026-05-06 10:54 | -28.71091 | 152.80416 | 23639 ft | 349 kts | 234° |
| 2026-05-06 10:54 | -28.72513 | 152.78164 | 24180 ft | 348 kts | 234° |
| 2026-05-06 10:54 | -28.73927 | 152.75926 | 24718 ft | 346 kts | 234° |
| 2026-05-06 10:55 | -28.75330 | 152.73701 | 25256 ft | 344 kts | 234° |
| 2026-05-06 10:55 | -28.76708 | 152.71516 | 25792 ft | 342 kts | 234° |
| 2026-05-06 10:55 | -28.78089 | 152.69326 | 26332 ft | 339 kts | 234° |
| 2026-05-06 10:55 | -28.79459 | 152.67150 | 26862 ft | 335 kts | 234° |
| 2026-05-06 10:56 | -28.80810 | 152.65005 | 27398 ft | 330 kts | 234° |
| 2026-05-06 10:56 | -28.82141 | 152.62892 | 27929 ft | 325 kts | 234° |
| 2026-05-06 10:56 | -28.83447 | 152.60816 | 28448 ft | 319 kts | 234° |
| 2026-05-06 10:56 | -28.84737 | 152.58782 | 28659 ft | 325 kts | 230° |
| 2026-05-06 10:57 | -28.86523 | 152.57086 | 28550 ft | 339 kts | 209° |
| 2026-05-06 10:57 | -28.90849 | 152.54650 | 28756 ft | 357 kts | 205° |
| 2026-05-06 10:57 | -28.93121 | 152.53415 | 28937 ft | 364 kts | 206° |
| 2026-05-06 10:58 | -28.95418 | 152.52138 | 29212 ft | 368 kts | 206° |
| 2026-05-06 10:58 | -28.97709 | 152.50833 | 29606 ft | 367 kts | 207° |
| 2026-05-06 10:58 | -28.99985 | 152.49513 | 30023 ft | 366 kts | 207° |
| 2026-05-06 10:58 | -29.02254 | 152.48181 | 30387 ft | 366 kts | 207° |
| 2026-05-06 10:59 | -29.04510 | 152.46847 | 30749 ft | 365 kts | 207° |
| 2026-05-06 10:59 | -29.06742 | 152.45521 | 31079 ft | 365 kts | 208° |
| 2026-05-06 10:59 | -29.08993 | 152.44181 | 31416 ft | 365 kts | 208° |
| 2026-05-06 10:59 | -29.11248 | 152.42837 | 31691 ft | 366 kts | 208° |
| 2026-05-06 11:00 | -29.13506 | 152.41489 | 31954 ft | 366 kts | 208° |
| 2026-05-06 11:00 | -29.18050 | 152.38776 | 32011 ft | 368 kts | 208° |
| 2026-05-06 11:01 | -29.22556 | 152.36083 | 31999 ft | 362 kts | 208° |
| 2026-05-06 11:01 | -29.27038 | 152.33402 | 32024 ft | 369 kts | 208° |
| 2026-05-06 11:02 | -29.31672 | 152.30626 | 32026 ft | 387 kts | 208° |
| 2026-05-06 11:02 | -29.36552 | 152.27701 | 32024 ft | 404 kts | 208° |
| 2026-05-06 11:03 | -29.41662 | 152.24634 | 32022 ft | 422 kts | 208° |
| 2026-05-06 11:03 | -29.46941 | 152.21462 | 32020 ft | 438 kts | 208° |
| 2026-05-06 11:04 | -29.52410 | 152.18172 | 32007 ft | 446 kts | 208° |
| 2026-05-06 11:04 | -29.57881 | 152.14877 | 32005 ft | 446 kts | 208° |
| 2026-05-06 11:05 | -29.63385 | 152.11557 | 32002 ft | 447 kts | 208° |
| 2026-05-06 11:05 | -29.68897 | 152.08230 | 32011 ft | 446 kts | 207° |
| 2026-05-06 11:05 | -29.71734 | 152.06904 | 31989 ft | 446 kts | 194° |
| 2026-05-06 11:06 | -29.74783 | 152.06095 | 32025 ft | 452 kts | 192° |
| 2026-05-06 11:06 | -29.81057 | 152.04569 | 32017 ft | 465 kts | 192° |
| 2026-05-06 11:07 | -29.87355 | 152.02995 | 31998 ft | 465 kts | 193° |
| 2026-05-06 11:07 | -29.93672 | 152.01357 | 31999 ft | 464 kts | 193° |
| 2026-05-06 11:08 | -29.99973 | 151.99703 | 32003 ft | 463 kts | 193° |
| 2026-05-06 11:08 | -30.06241 | 151.98057 | 32005 ft | 462 kts | 193° |
| 2026-05-06 11:09 | -30.12477 | 151.96419 | 32007 ft | 461 kts | 193° |
| 2026-05-06 11:09 | -30.18740 | 151.94773 | 32009 ft | 461 kts | 193° |
| 2026-05-06 11:10 | -30.24974 | 151.93132 | 32008 ft | 461 kts | 193° |
| 2026-05-06 11:10 | -30.31247 | 151.91479 | 32008 ft | 462 kts | 193° |
| 2026-05-06 11:11 | -30.37321 | 151.89176 | 32013 ft | 461 kts | 202° |
| 2026-05-06 11:11 | -30.43240 | 151.86281 | 32008 ft | 462 kts | 203° |
| 2026-05-06 11:12 | -30.49170 | 151.83384 | 32008 ft | 462 kts | 202° |
| 2026-05-06 11:12 | -30.55135 | 151.80556 | 32008 ft | 463 kts | 202° |
| 2026-05-06 11:13 | -30.61084 | 151.77775 | 32006 ft | 463 kts | 202° |
| 2026-05-06 11:13 | -30.67068 | 151.74979 | 32007 ft | 462 kts | 202° |
| 2026-05-06 11:14 | -30.73033 | 151.72186 | 32004 ft | 462 kts | 202° |
| 2026-05-06 11:14 | -30.78997 | 151.69387 | 32008 ft | 462 kts | 202° |
| 2026-05-06 11:15 | -30.84927 | 151.66600 | 32006 ft | 462 kts | 202° |
| 2026-05-06 11:15 | -30.90888 | 151.63794 | 32008 ft | 462 kts | 202° |
| 2026-05-06 11:16 | -30.96837 | 151.60991 | 31996 ft | 456 kts | 202° |
| 2026-05-06 11:16 | -30.99733 | 151.59625 | 31992 ft | 441 kts | 202° |
| 2026-05-06 11:16 | -31.02568 | 151.58287 | 32008 ft | 439 kts | 202° |
| 2026-05-06 11:17 | -31.08306 | 151.55576 | 32022 ft | 454 kts | 202° |
| 2026-05-06 11:17 | -31.14261 | 151.52758 | 32018 ft | 466 kts | 202° |
| 2026-05-06 11:18 | -31.20293 | 151.49900 | 32002 ft | 467 kts | 202° |
| 2026-05-06 11:18 | -31.26282 | 151.47058 | 32005 ft | 466 kts | 202° |
| 2026-05-06 11:19 | -31.32292 | 151.44203 | 32004 ft | 465 kts | 202° |
| 2026-05-06 11:19 | -31.38296 | 151.41347 | 32006 ft | 464 kts | 202° |
| 2026-05-06 11:20 | -31.44317 | 151.38601 | 32007 ft | 463 kts | 201° |
| 2026-05-06 11:20 | -31.50305 | 151.35964 | 32008 ft | 462 kts | 201° |
| 2026-05-06 11:21 | -31.55310 | 151.33749 | 32012 ft | 461 kts | 201° |
| 2026-05-06 11:21 | -31.61313 | 151.31072 | 32001 ft | 460 kts | 201° |
| 2026-05-06 11:22 | -31.67300 | 151.28392 | 32007 ft | 459 kts | 201° |
| 2026-05-06 11:22 | -31.73236 | 151.25730 | 32013 ft | 459 kts | 201° |
| 2026-05-06 11:23 | -31.79213 | 151.23046 | 32004 ft | 459 kts | 201° |
| 2026-05-06 11:23 | -31.85164 | 151.20370 | 32011 ft | 459 kts | 201° |
| 2026-05-06 11:24 | -31.91143 | 151.17679 | 32008 ft | 459 kts | 201° |
| 2026-05-06 11:24 | -31.97121 | 151.14989 | 32006 ft | 458 kts | 201° |
| 2026-05-06 11:25 | -32.03053 | 151.12332 | 32006 ft | 458 kts | 201° |
| 2026-05-06 11:25 | -32.09021 | 151.09656 | 32009 ft | 457 kts | 201° |
| 2026-05-06 11:25 | -32.12010 | 151.08314 | 31661 ft | 461 kts | 201° |
| 2026-05-06 11:26 | -32.15021 | 151.06960 | 30811 ft | 464 kts | 201° |
| 2026-05-06 11:26 | -32.18035 | 151.05603 | 29994 ft | 464 kts | 201° |
| 2026-05-06 11:26 | -32.21050 | 151.04245 | 29178 ft | 463 kts | 201° |
| 2026-05-06 11:26 | -32.24027 | 151.02909 | 28370 ft | 462 kts | 199° |
| 2026-05-06 11:27 | -32.27165 | 151.02120 | 27528 ft | 462 kts | 184° |
| 2026-05-06 11:27 | -32.30375 | 151.02054 | 26735 ft | 460 kts | 179° |
| 2026-05-06 11:27 | -32.33574 | 151.02206 | 25914 ft | 459 kts | 177° |
| 2026-05-06 11:27 | -32.36760 | 151.02411 | 25090 ft | 457 kts | 177° |
| 2026-05-06 11:28 | -32.39922 | 151.02597 | 24257 ft | 449 kts | 178° |
| 2026-05-06 11:28 | -32.43014 | 151.02739 | 23425 ft | 438 kts | 178° |
| 2026-05-06 11:28 | -32.46028 | 151.02841 | 22601 ft | 429 kts | 179° |
| 2026-05-06 11:28 | -32.48983 | 151.02917 | 21771 ft | 420 kts | 179° |
| 2026-05-06 11:29 | -32.51851 | 151.02978 | 20958 ft | 413 kts | 179° |
| 2026-05-06 11:29 | -32.54701 | 151.03033 | 20133 ft | 406 kts | 179° |
| 2026-05-06 11:29 | -32.57508 | 151.03086 | 19309 ft | 399 kts | 179° |
| 2026-05-06 11:29 | -32.60265 | 151.03138 | 18487 ft | 393 kts | 179° |
| 2026-05-06 11:30 | -32.62989 | 151.03190 | 17657 ft | 388 kts | 179° |
| 2026-05-06 11:30 | -32.65667 | 151.03242 | 16841 ft | 383 kts | 179° |
| 2026-05-06 11:30 | -32.68317 | 151.03294 | 16019 ft | 378 kts | 179° |
| 2026-05-06 11:30 | -32.70931 | 151.03346 | 15198 ft | 374 kts | 179° |
| 2026-05-06 11:31 | -32.73518 | 151.03397 | 14378 ft | 370 kts | 179° |
| 2026-05-06 11:31 | -32.76078 | 151.03448 | 13552 ft | 366 kts | 179° |
| 2026-05-06 11:31 | -32.78613 | 151.03498 | 12731 ft | 362 kts | 179° |
| 2026-05-06 11:31 | -32.81128 | 151.03548 | 11908 ft | 359 kts | 179° |
| 2026-05-06 11:32 | -32.83614 | 151.03598 | 11084 ft | 355 kts | 179° |
| 2026-05-06 11:32 | -32.86040 | 151.03646 | 10409 ft | 349 kts | 179° |
| 2026-05-06 11:32 | -32.88404 | 151.03694 | 10194 ft | 329 kts | 179° |
| 2026-05-06 11:32 | -32.90625 | 151.03739 | 10043 ft | 309 kts | 179° |
| 2026-05-06 11:33 | -32.92715 | 151.03780 | 9930 ft | 291 kts | 179° |
| 2026-05-06 11:33 | -32.94735 | 151.03820 | 9937 ft | 290 kts | 179° |
| 2026-05-06 11:33 | -32.96757 | 151.03861 | 9931 ft | 290 kts | 179° |
| 2026-05-06 11:33 | -32.98746 | 151.03900 | 9930 ft | 289 kts | 179° |
| 2026-05-06 11:34 | -33.00766 | 151.03940 | 9931 ft | 290 kts | 179° |
| 2026-05-06 11:34 | -33.02787 | 151.03981 | 9930 ft | 290 kts | 179° |
| 2026-05-06 11:34 | -33.04816 | 151.04021 | 9936 ft | 291 kts | 179° |
| 2026-05-06 11:34 | -33.06861 | 151.04062 | 9937 ft | 296 kts | 179° |
| 2026-05-06 11:35 | -33.08910 | 151.04103 | 9923 ft | 292 kts | 179° |
| 2026-05-06 11:35 | -33.10932 | 151.04144 | 9919 ft | 288 kts | 179° |
| 2026-05-06 11:35 | -33.12910 | 151.04183 | 9918 ft | 288 kts | 179° |
| 2026-05-06 11:35 | -33.14920 | 151.04224 | 9927 ft | 289 kts | 179° |
| 2026-05-06 11:36 | -33.16942 | 151.04264 | 9930 ft | 290 kts | 179° |
| 2026-05-06 11:36 | -33.18968 | 151.04305 | 9929 ft | 291 kts | 179° |
| 2026-05-06 11:36 | -33.20993 | 151.04345 | 9928 ft | 291 kts | 179° |
| 2026-05-06 11:36 | -33.22996 | 151.04386 | 9923 ft | 291 kts | 179° |
| 2026-05-06 11:37 | -33.25016 | 151.04546 | 9922 ft | 291 kts | 172° |
| 2026-05-06 11:37 | -33.27016 | 151.04935 | 9923 ft | 291 kts | 170° |
| 2026-05-06 11:37 | -33.29029 | 151.05368 | 9502 ft | 295 kts | 170° |
| 2026-05-06 11:37 | -33.31052 | 151.05786 | 9037 ft | 293 kts | 171° |
| 2026-05-06 11:38 | -33.33052 | 151.06182 | 8545 ft | 289 kts | 171° |
| 2026-05-06 11:38 | -33.35006 | 151.06560 | 8079 ft | 285 kts | 171° |
| 2026-05-06 11:38 | -33.36958 | 151.06935 | 7609 ft | 282 kts | 171° |
| 2026-05-06 11:38 | -33.38885 | 151.07304 | 7129 ft | 279 kts | 171° |
| 2026-05-06 11:39 | -33.40799 | 151.07672 | 6655 ft | 277 kts | 171° |
| 2026-05-06 11:39 | -33.42693 | 151.08036 | 6186 ft | 274 kts | 171° |
| 2026-05-06 11:39 | -33.44563 | 151.08394 | 5969 ft | 272 kts | 171° |
| 2026-05-06 11:39 | -33.46453 | 151.08757 | 5940 ft | 276 kts | 171° |
| 2026-05-06 11:40 | -33.48342 | 151.09120 | 5924 ft | 273 kts | 171° |
| 2026-05-06 11:40 | -33.50189 | 151.09476 | 5929 ft | 272 kts | 171° |
| 2026-05-06 11:40 | -33.52069 | 151.09837 | 5925 ft | 274 kts | 171° |
| 2026-05-06 11:40 | -33.53946 | 151.10199 | 5930 ft | 273 kts | 171° |
| 2026-05-06 11:41 | -33.55823 | 151.10561 | 5924 ft | 272 kts | 171° |
| 2026-05-06 11:41 | -33.57695 | 151.10921 | 5916 ft | 271 kts | 171° |
| 2026-05-06 11:41 | -33.59557 | 151.11280 | 5927 ft | 271 kts | 171° |
| 2026-05-06 11:41 | -33.61395 | 151.11635 | 5917 ft | 271 kts | 171° |
| 2026-05-06 11:42 | -33.63260 | 151.12001 | 5919 ft | 271 kts | 171° |
| 2026-05-06 11:42 | -33.65120 | 151.12368 | 5924 ft | 271 kts | 171° |
| 2026-05-06 11:42 | -33.66975 | 151.12735 | 5922 ft | 273 kts | 171° |
| 2026-05-06 11:42 | -33.68847 | 151.13105 | 5924 ft | 272 kts | 171° |
| 2026-05-06 11:43 | -33.70720 | 151.13475 | 5930 ft | 272 kts | 171° |
| 2026-05-06 11:43 | -33.72599 | 151.13839 | 5925 ft | 273 kts | 171° |
| 2026-05-06 11:43 | -33.74481 | 151.14203 | 5926 ft | 274 kts | 171° |
| 2026-05-06 11:44 | -33.78230 | 151.14929 | 5930 ft | 274 kts | 171° |
| 2026-05-06 11:44 | -33.80118 | 151.15295 | 5920 ft | 274 kts | 172° |
| 2026-05-06 11:44 | -33.82033 | 151.15310 | 5927 ft | 277 kts | 192° |
| 2026-05-06 11:44 | -33.83899 | 151.14773 | 5930 ft | 274 kts | 194° |
| 2026-05-06 11:45 | -33.85739 | 151.14210 | 5923 ft | 271 kts | 194° |
| 2026-05-06 11:45 | -33.87546 | 151.13662 | 5924 ft | 270 kts | 194° |
| 2026-05-06 11:45 | -33.89380 | 151.13119 | 5919 ft | 270 kts | 194° |
| 2026-05-06 11:45 | -33.91178 | 151.12596 | 5901 ft | 258 kts | 194° |
| 2026-05-06 11:46 | -33.92891 | 151.12100 | 5911 ft | 249 kts | 194° |
| 2026-05-06 11:46 | -33.94574 | 151.11615 | 5917 ft | 248 kts | 194° |
| 2026-05-06 11:46 | -33.96265 | 151.11126 | 5929 ft | 251 kts | 194° |
| 2026-05-06 11:46 | -33.97981 | 151.10631 | 5645 ft | 258 kts | 194° |
| 2026-05-06 11:47 | -33.99735 | 151.10124 | 5198 ft | 258 kts | 194° |
| 2026-05-06 11:47 | -34.01460 | 151.09625 | 4762 ft | 257 kts | 194° |
| 2026-05-06 11:47 | -34.03194 | 151.09124 | 4305 ft | 256 kts | 194° |
| 2026-05-06 11:47 | -34.04927 | 151.08623 | 3861 ft | 255 kts | 193° |
| 2026-05-06 11:48 | -34.06663 | 151.08126 | 3398 ft | 255 kts | 194° |
| 2026-05-06 11:48 | -34.08403 | 151.07825 | 2996 ft | 252 kts | 175° |
| 2026-05-06 11:48 | -34.10060 | 151.08219 | 2933 ft | 233 kts | 167° |
| 2026-05-06 11:48 | -34.11580 | 151.08635 | 2904 ft | 215 kts | 168° |
| 2026-05-06 11:49 | -34.12976 | 151.09006 | 2903 ft | 196 kts | 168° |
| 2026-05-06 11:49 | -34.14287 | 151.09352 | 2870 ft | 192 kts | 168° |
| 2026-05-06 11:49 | -34.15516 | 151.09929 | 2897 ft | 190 kts | 139° |
| 2026-05-06 11:49 | -34.16229 | 151.11279 | 2941 ft | 202 kts | 102° |
| 2026-05-06 11:50 | -34.16262 | 151.12943 | 2929 ft | 195 kts | 84° |
| 2026-05-06 11:50 | -34.16115 | 151.14553 | 2916 ft | 193 kts | 83° |
| 2026-05-06 11:50 | -34.15955 | 151.16166 | 2927 ft | 194 kts | 83° |
| 2026-05-06 11:50 | -34.15791 | 151.17787 | 2926 ft | 195 kts | 83° |
| 2026-05-06 11:51 | -34.15625 | 151.19410 | 2919 ft | 194 kts | 81° |
| 2026-05-06 11:51 | -34.15125 | 151.20860 | 2868 ft | 190 kts | 45° |
| 2026-05-06 11:51 | -34.14000 | 151.21656 | 2861 ft | 190 kts | 15° |
| 2026-05-06 11:51 | -34.12692 | 151.21914 | 2846 ft | 194 kts | 358° |
| 2026-05-06 11:52 | -34.11336 | 151.21732 | 2571 ft | 195 kts | 351° |
| 2026-05-06 11:52 | -34.09991 | 151.21463 | 2258 ft | 193 kts | 349° |
| 2026-05-06 11:52 | -34.08680 | 151.21159 | 1825 ft | 195 kts | 348° |
| 2026-05-06 11:52 | -34.07379 | 151.20847 | 1555 ft | 184 kts | 347° |
| 2026-05-06 11:53 | -34.06130 | 151.20505 | 1416 ft | 180 kts | 347° |
| 2026-05-06 11:53 | -34.04918 | 151.20164 | 1691 ft | 167 kts | 339° |
| 2026-05-06 11:53 | -34.03895 | 151.19859 | 2432 ft | 158 kts | 351° |
| 2026-05-06 11:53 | -34.02692 | 151.19641 | 2216 ft | 191 kts | 351° |
| 2026-05-06 11:54 | -34.01384 | 151.19364 | 1509 ft | 191 kts | 347° |
| 2026-05-06 11:54 | -34.00124 | 151.19018 | 1025 ft | 182 kts | 347° |
| 2026-05-06 11:54 | -33.98899 | 151.18696 | 492 ft | 176 kts | 347° |
| 2026-05-06 11:54 | -33.97750 | 151.18404 | 301 ft | 170 kts | 347° |
| 2026-05-06 11:55 | -33.96638 | 151.18118 | 93 ft | 155 kts | 347° |
| 2026-05-06 11:55 | -33.95671 | 151.17865 | 23 ft | 117 kts | 350° |
| 2026-05-06 11:55 | -33.95304 | 151.17773 | 22 ft | 29 kts | 349° |
| 2026-05-06 11:55 | -33.95029 | 151.17703 | 19 ft | 49 kts | 347° |
| 2026-05-06 11:56 | -33.94703 | 151.17643 | 22 ft | 46 kts | 1° |
| 2026-05-06 11:56 | -33.94486 | 151.17697 | 26 ft | 0 kts | 15° |
| 2026-05-06 11:56 | -33.94485 | 151.17698 | 23 ft | 0 kts | 16° |
| 2026-05-06 11:57 | -33.94464 | 151.17705 | 26 ft | 0 kts | 15° |
| 2026-05-06 11:57 | -33.94451 | 151.17710 | 25 ft | 18 kts | 19° |
| 2026-05-06 11:58 | -33.94262 | 151.17716 | 20 ft | 14 kts | 345° |
| 2026-05-06 11:58 | -33.94164 | 151.17683 | 21 ft | 16 kts | 346° |
| 2026-05-06 11:58 | -33.94053 | 151.17651 | 21 ft | 17 kts | 347° |
| 2026-05-06 11:58 | -33.94006 | 151.17638 | 20 ft | 0 kts | 347° |
| 2026-05-06 12:00 | -33.93999 | 151.17636 | 21 ft | 2 kts | 347° |
| 2026-05-06 12:01 | -33.93921 | 151.17622 | 18 ft | 22 kts | 9° |
| 2026-05-06 12:01 | -33.93833 | 151.17781 | 21 ft | 30 kts | 69° |
| 2026-05-06 12:01 | -33.93793 | 151.17982 | 29 ft | 0 kts | 75° |
| 2026-05-06 12:01 | -33.93793 | 151.17986 | 29 ft | 0 kts | 75° |
| 2026-05-06 12:02 | -33.93792 | 151.17987 | 29 ft | 0 kts | 75° |
| 2026-05-06 12:02 | -33.93791 | 151.17991 | 29 ft | 1 kts | 74° |
| 2026-05-06 12:02 | -33.93774 | 151.18026 | 29 ft | 15 kts | 45° |
| 2026-05-06 12:02 | -33.93712 | 151.18068 | 29 ft | 1 kts | 351° |
| 2026-05-06 12:03 | -33.93647 | 151.18032 | 30 ft | 0 kts | 299° |
| 2026-05-06 12:03 | -33.93646 | 151.18023 | 30 ft | 3 kts | 281° |
| 2026-05-06 12:03 | -33.93641 | 151.17993 | 30 ft | 0 kts | 282° |